sensor_id;sensor_type;location;lat;lon;timestamp;temperature;humidity
53904;DHT22;39812;52.430;16.936;2024-03-08T00:00:14;0.80;1.00
53904;DHT22;39812;52.430;16.936;2024-03-08T00:02:47;-0.30;1.00
53904;DHT22;39812;52.430;16.936;2024-03-08T00:05:13;-0.70;1.00
53904;DHT22;39812;52.430;16.936;2024-03-08T00:10:07;-0.50;1.00
53904;DHT22;39812;52.430;16.936;2024-03-08T00:12:36;0.00;1.00
53904;DHT22;39812;52.430;16.936;2024-03-08T00:15:02;0.70;1.00
53904;DHT22;39812;52.430;16.936;2024-03-08T00:17:28;-1.10;1.00
53904;DHT22;39812;52.430;16.936;2024-03-08T00:19:54;-2.30;1.00
53904;DHT22;39812;52.430;16.936;2024-03-08T00:22:19;-1.70;1.00
53904;DHT22;39812;52.430;16.936;2024-03-08T00:24:45;0.40;1.00
53904;DHT22;39812;52.430;16.936;2024-03-08T00:29:37;-2.20;1.00
53904;DHT22;39812;52.430;16.936;2024-03-08T00:34:35;-2.60;1.00
53904;DHT22;39812;52.430;16.936;2024-03-08T00:39:28;-2.40;1.00
53904;DHT22;39812;52.430;16.936;2024-03-08T00:46:45;-2.50;1.00
53904;DHT22;39812;52.430;16.936;2024-03-08T00:58:55;-2.20;1.00
53904;DHT22;39812;52.430;16.936;2024-03-08T01:03:47;-1.20;1.00
53904;DHT22;39812;52.430;16.936;2024-03-08T01:06:14;-2.20;1.00
53904;DHT22;39812;52.430;16.936;2024-03-08T01:08:40;-1.70;1.00
53904;DHT22;39812;52.430;16.936;2024-03-08T01:18:25;-1.90;1.00
53904;DHT22;39812;52.430;16.936;2024-03-08T01:23:16;-1.40;1.00
53904;DHT22;39812;52.430;16.936;2024-03-08T01:25:42;-2.40;1.00
53904;DHT22;39812;52.430;16.936;2024-03-08T01:28:09;-2.00;1.00
53904;DHT22;39812;52.430;16.936;2024-03-08T01:30:34;-1.30;1.00
53904;DHT22;39812;52.430;16.936;2024-03-08T01:35:28;-2.40;1.00
53904;DHT22;39812;52.430;16.936;2024-03-08T01:37:53;-2.30;1.00
53904;DHT22;39812;52.430;16.936;2024-03-08T01:40:19;-2.10;1.00
53904;DHT22;39812;52.430;16.936;2024-03-08T01:42:45;-2.40;1.00
53904;DHT22;39812;52.430;16.936;2024-03-08T01:45:10;-0.90;1.00
53904;DHT22;39812;52.430;16.936;2024-03-08T01:47:37;-2.60;1.00
53904;DHT22;39812;52.430;16.936;2024-03-08T01:50:03;-1.10;1.00
53904;DHT22;39812;52.430;16.936;2024-03-08T01:52:30;-1.70;1.00
53904;DHT22;39812;52.430;16.936;2024-03-08T01:55:02;-1.70;1.00
53904;DHT22;39812;52.430;16.936;2024-03-08T01:57:31;-0.70;1.00
53904;DHT22;39812;52.430;16.936;2024-03-08T01:59:59;-0.90;1.00
53904;DHT22;39812;52.430;16.936;2024-03-08T02:02:26;-2.60;1.00
53904;DHT22;39812;52.430;16.936;2024-03-08T02:04:52;-2.10;1.00
53904;DHT22;39812;52.430;16.936;2024-03-08T02:07:18;-2.30;1.00
53904;DHT22;39812;52.430;16.936;2024-03-08T02:12:10;-1.50;1.00
53904;DHT22;39812;52.430;16.936;2024-03-08T02:14:35;-1.90;1.00
53904;DHT22;39812;52.430;16.936;2024-03-08T02:17:02;-1.40;1.00
53904;DHT22;39812;52.430;16.936;2024-03-08T02:21:54;-1.10;1.00
53904;DHT22;39812;52.430;16.936;2024-03-08T02:26:46;-1.80;1.00
53904;DHT22;39812;52.430;16.936;2024-03-08T02:39:03;-1.10;1.00
53904;DHT22;39812;52.430;16.936;2024-03-08T02:41:28;0.50;1.00
53904;DHT22;39812;52.430;16.936;2024-03-08T02:46:20;-1.50;1.00
53904;DHT22;39812;52.430;16.936;2024-03-08T02:53:39;-1.80;1.00
53904;DHT22;39812;52.430;16.936;2024-03-08T02:58:34;-2.30;1.00
53904;DHT22;39812;52.430;16.936;2024-03-08T03:03:25;-3.00;1.00
53904;DHT22;39812;52.430;16.936;2024-03-08T03:10:47;-3.20;1.00
53904;DHT22;39812;52.430;16.936;2024-03-08T03:13:12;-2.40;1.00
53904;DHT22;39812;52.430;16.936;2024-03-08T03:15:39;-1.80;1.00
53904;DHT22;39812;52.430;16.936;2024-03-08T03:18:07;-3.20;1.00
53904;DHT22;39812;52.430;16.936;2024-03-08T03:20:33;-3.00;1.00
53904;DHT22;39812;52.430;16.936;2024-03-08T03:23:02;0.60;1.00
53904;DHT22;39812;52.430;16.936;2024-03-08T03:25:28;-1.90;1.00
53904;DHT22;39812;52.430;16.936;2024-03-08T03:32:53;-3.40;1.00
53904;DHT22;39812;52.430;16.936;2024-03-08T03:35:22;-2.10;1.00
53904;DHT22;39812;52.430;16.936;2024-03-08T03:37:48;-3.00;1.00
53904;DHT22;39812;52.430;16.936;2024-03-08T03:40:30;-2.20;1.00
53904;DHT22;39812;52.430;16.936;2024-03-08T03:45:23;-3.20;1.00
53904;DHT22;39812;52.430;16.936;2024-03-08T03:47:48;-2.10;1.00
53904;DHT22;39812;52.430;16.936;2024-03-08T03:50:14;-3.70;1.00
53904;DHT22;39812;52.430;16.936;2024-03-08T03:52:39;-1.90;1.00
53904;DHT22;39812;52.430;16.936;2024-03-08T03:55:05;-3.00;1.00
53904;DHT22;39812;52.430;16.936;2024-03-08T03:59:57;-3.40;1.00
53904;DHT22;39812;52.430;16.936;2024-03-08T04:02:28;-3.90;1.00
53904;DHT22;39812;52.430;16.936;2024-03-08T04:04:53;-3.60;1.00
53904;DHT22;39812;52.430;16.936;2024-03-08T04:07:20;-2.90;1.00
53904;DHT22;39812;52.430;16.936;2024-03-08T04:12:12;-2.10;1.00
53904;DHT22;39812;52.430;16.936;2024-03-08T04:14:40;-2.10;1.00
53904;DHT22;39812;52.430;16.936;2024-03-08T04:19:34;-1.80;1.00
53904;DHT22;39812;52.430;16.936;2024-03-08T04:26:52;-2.30;1.00
53904;DHT22;39812;52.430;16.936;2024-03-08T04:29:18;-3.60;1.00
53904;DHT22;39812;52.430;16.936;2024-03-08T04:31:44;-2.00;1.00
53904;DHT22;39812;52.430;16.936;2024-03-08T04:41:28;-3.70;1.00
53904;DHT22;39812;52.430;16.936;2024-03-08T04:43:56;-0.40;1.00
53904;DHT22;39812;52.430;16.936;2024-03-08T04:46:23;-3.00;1.00
53904;DHT22;39812;52.430;16.936;2024-03-08T04:48:48;-2.10;1.00
53904;DHT22;39812;52.430;16.936;2024-03-08T04:56:07;-2.50;1.00
53904;DHT22;39812;52.430;16.936;2024-03-08T04:58:35;-2.90;1.00
53904;DHT22;39812;52.430;16.936;2024-03-08T05:01:01;-2.00;1.00
53904;DHT22;39812;52.430;16.936;2024-03-08T05:03:27;-2.30;1.00
53904;DHT22;39812;52.430;16.936;2024-03-08T05:05:52;-4.10;1.00
53904;DHT22;39812;52.430;16.936;2024-03-08T05:15:38;-3.10;1.00
53904;DHT22;39812;52.430;16.936;2024-03-08T05:20:30;-2.40;1.00
53904;DHT22;39812;52.430;16.936;2024-03-08T05:22:56;-2.00;1.00
53904;DHT22;39812;52.430;16.936;2024-03-08T05:25:25;-3.40;1.00
53904;DHT22;39812;52.430;16.936;2024-03-08T05:30:17;-2.00;1.00
53904;DHT22;39812;52.430;16.936;2024-03-08T05:32:43;-2.00;1.00
53904;DHT22;39812;52.430;16.936;2024-03-08T05:37:38;-2.90;1.00
53904;DHT22;39812;52.430;16.936;2024-03-08T05:40:05;-2.60;1.00
53904;DHT22;39812;52.430;16.936;2024-03-08T05:42:35;-3.20;1.00
53904;DHT22;39812;52.430;16.936;2024-03-08T05:45:06;-3.30;1.00
53904;DHT22;39812;52.430;16.936;2024-03-08T05:47:32;-3.40;1.00
53904;DHT22;39812;52.430;16.936;2024-03-08T05:52:27;-1.90;1.00
53904;DHT22;39812;52.430;16.936;2024-03-08T05:57:18;-1.70;1.00
53904;DHT22;39812;52.430;16.936;2024-03-08T06:07:03;0.00;1.00
53904;DHT22;39812;52.430;16.936;2024-03-08T06:09:29;-1.70;1.00
53904;DHT22;39812;52.430;16.936;2024-03-08T06:14:22;-1.00;1.00
53904;DHT22;39812;52.430;16.936;2024-03-08T06:16:48;-1.90;1.00
53904;DHT22;39812;52.430;16.936;2024-03-08T06:19:15;-2.20;1.00
53904;DHT22;39812;52.430;16.936;2024-03-08T06:21:41;-0.90;1.00
53904;DHT22;39812;52.430;16.936;2024-03-08T06:24:07;-1.00;1.00
53904;DHT22;39812;52.430;16.936;2024-03-08T06:28:58;-1.90;1.00
53904;DHT22;39812;52.430;16.936;2024-03-08T06:33:50;-1.80;1.00
53904;DHT22;39812;52.430;16.936;2024-03-08T06:36:16;-0.70;1.00
53904;DHT22;39812;52.430;16.936;2024-03-08T06:38:50;-1.30;1.00
53904;DHT22;39812;52.430;16.936;2024-03-08T06:41:15;0.00;1.00
53904;DHT22;39812;52.430;16.936;2024-03-08T06:43:45;-0.50;1.00
53904;DHT22;39812;52.430;16.936;2024-03-08T06:46:12;-1.30;1.00
53904;DHT22;39812;52.430;16.936;2024-03-08T06:48:39;-0.20;1.00
53904;DHT22;39812;52.430;16.936;2024-03-08T06:51:04;-0.40;1.00
53904;DHT22;39812;52.430;16.936;2024-03-08T06:53:30;0.30;1.00
53904;DHT22;39812;52.430;16.936;2024-03-08T06:55:57;-0.30;1.00
53904;DHT22;39812;52.430;16.936;2024-03-08T07:13:02;1.60;1.00
53904;DHT22;39812;52.430;16.936;2024-03-08T07:15:28;0.00;1.00
53904;DHT22;39812;52.430;16.936;2024-03-08T07:17:54;-0.40;1.00
53904;DHT22;39812;52.430;16.936;2024-03-08T07:22:47;0.70;1.00
53904;DHT22;39812;52.430;16.936;2024-03-08T07:27:50;1.10;1.00
53904;DHT22;39812;52.430;16.936;2024-03-08T07:35:29;2.50;99.90
53904;DHT22;39812;52.430;16.936;2024-03-08T07:37:55;2.10;1.00
53904;DHT22;39812;52.430;16.936;2024-03-08T07:40:21;0.80;1.00
53904;DHT22;39812;52.430;16.936;2024-03-08T07:47:39;2.30;1.00
53904;DHT22;39812;52.430;16.936;2024-03-08T07:50:05;2.00;99.90
53904;DHT22;39812;52.430;16.936;2024-03-08T07:52:34;2.00;99.90
53904;DHT22;39812;52.430;16.936;2024-03-08T08:12:03;4.20;99.90
53904;DHT22;39812;52.430;16.936;2024-03-08T08:14:29;2.20;99.90
53904;DHT22;39812;52.430;16.936;2024-03-08T08:16:55;3.10;99.90
53904;DHT22;39812;52.430;16.936;2024-03-08T08:21:48;2.30;99.90
53904;DHT22;39812;52.430;16.936;2024-03-08T08:24:14;3.60;99.90
53904;DHT22;39812;52.430;16.936;2024-03-08T08:26:40;3.50;99.90
53904;DHT22;39812;52.430;16.936;2024-03-08T08:29:06;3.10;99.90
53904;DHT22;39812;52.430;16.936;2024-03-08T08:33:58;3.40;99.90
53904;DHT22;39812;52.430;16.936;2024-03-08T08:41:19;4.10;99.90
53904;DHT22;39812;52.430;16.936;2024-03-08T08:46:12;5.20;99.90
53904;DHT22;39812;52.430;16.936;2024-03-08T08:48:41;4.60;99.90
53904;DHT22;39812;52.430;16.936;2024-03-08T08:53:40;5.00;99.90
53904;DHT22;39812;52.430;16.936;2024-03-08T08:58:34;5.60;99.90
53904;DHT22;39812;52.430;16.936;2024-03-08T09:00:59;3.30;99.90
53904;DHT22;39812;52.430;16.936;2024-03-08T09:03:27;4.20;99.90
53904;DHT22;39812;52.430;16.936;2024-03-08T09:05:53;6.10;99.90
53904;DHT22;39812;52.430;16.936;2024-03-08T09:08:19;4.80;99.90
53904;DHT22;39812;52.430;16.936;2024-03-08T09:18:06;4.50;99.90
53904;DHT22;39812;52.430;16.936;2024-03-08T09:20:31;4.90;99.90
53904;DHT22;39812;52.430;16.936;2024-03-08T09:22:57;4.90;99.90
53904;DHT22;39812;52.430;16.936;2024-03-08T09:25:23;5.30;99.90
53904;DHT22;39812;52.430;16.936;2024-03-08T09:27:48;5.00;99.90
53904;DHT22;39812;52.430;16.936;2024-03-08T09:32:41;3.30;99.90
53904;DHT22;39812;52.430;16.936;2024-03-08T09:35:07;5.70;99.90
53904;DHT22;39812;52.430;16.936;2024-03-08T09:37:33;5.00;99.90
53904;DHT22;39812;52.430;16.936;2024-03-08T09:39:59;5.20;99.90
53904;DHT22;39812;52.430;16.936;2024-03-08T09:47:22;5.30;99.90
53904;DHT22;39812;52.430;16.936;2024-03-08T09:52:17;5.40;99.90
53904;DHT22;39812;52.430;16.936;2024-03-08T09:57:10;5.00;99.90
53904;DHT22;39812;52.430;16.936;2024-03-08T10:04:30;5.60;99.90
53904;DHT22;39812;52.430;16.936;2024-03-08T10:07:01;5.70;99.90
53904;DHT22;39812;52.430;16.936;2024-03-08T10:09:27;5.70;99.90
53904;DHT22;39812;52.430;16.936;2024-03-08T10:11:56;5.80;99.90
53904;DHT22;39812;52.430;16.936;2024-03-08T10:14:23;5.30;99.90
53904;DHT22;39812;52.430;16.936;2024-03-08T10:21:51;3.20;99.90
53904;DHT22;39812;52.430;16.936;2024-03-08T10:24:19;6.60;99.90
53904;DHT22;39812;52.430;16.936;2024-03-08T10:29:11;6.90;99.90
53904;DHT22;39812;52.430;16.936;2024-03-08T10:31:43;6.10;99.90
53904;DHT22;39812;52.430;16.936;2024-03-08T10:34:10;6.30;99.90
53904;DHT22;39812;52.430;16.936;2024-03-08T10:36:36;6.80;99.90
53904;DHT22;39812;52.430;16.936;2024-03-08T10:39:16;6.00;99.90
53904;DHT22;39812;52.430;16.936;2024-03-08T10:41:45;6.30;99.90
53904;DHT22;39812;52.430;16.936;2024-03-08T10:49:38;6.50;99.90
53904;DHT22;39812;52.430;16.936;2024-03-08T10:52:10;6.80;99.90
53904;DHT22;39812;52.430;16.936;2024-03-08T10:54:38;6.10;99.90
53904;DHT22;39812;52.430;16.936;2024-03-08T10:57:05;5.70;99.90
53904;DHT22;39812;52.430;16.936;2024-03-08T10:59:32;8.40;99.90
53904;DHT22;39812;52.430;16.936;2024-03-08T11:01:59;8.10;99.90
53904;DHT22;39812;52.430;16.936;2024-03-08T11:06:52;7.80;99.90
53904;DHT22;39812;52.430;16.936;2024-03-08T11:12:24;7.10;99.90
53904;DHT22;39812;52.430;16.936;2024-03-08T11:15:00;7.10;99.90
53904;DHT22;39812;52.430;16.936;2024-03-08T11:20:17;7.20;99.90
53904;DHT22;39812;52.430;16.936;2024-03-08T11:23:00;7.40;99.90
53904;DHT22;39812;52.430;16.936;2024-03-08T11:25:40;7.70;99.90
53904;DHT22;39812;52.430;16.936;2024-03-08T11:28:20;7.80;99.90
53904;DHT22;39812;52.430;16.936;2024-03-08T11:33:35;8.30;99.90
53904;DHT22;39812;52.430;16.936;2024-03-08T11:38:40;8.10;99.90
53904;DHT22;39812;52.430;16.936;2024-03-08T11:41:06;9.40;99.90
53904;DHT22;39812;52.430;16.936;2024-03-08T11:43:33;9.50;99.90
53904;DHT22;39812;52.430;16.936;2024-03-08T11:46:10;9.20;99.90
53904;DHT22;39812;52.430;16.936;2024-03-08T11:51:04;10.10;99.90
53904;DHT22;39812;52.430;16.936;2024-03-08T11:58:31;13.30;99.90
53904;DHT22;39812;52.430;16.936;2024-03-08T12:01:17;15.70;99.90
53904;DHT22;39812;52.430;16.936;2024-03-08T12:06:12;15.90;99.90
53904;DHT22;39812;52.430;16.936;2024-03-08T12:08:39;19.40;99.90
53904;DHT22;39812;52.430;16.936;2024-03-08T12:13:32;21.90;96.20
53904;DHT22;39812;52.430;16.936;2024-03-08T12:16:00;20.10;99.90
53904;DHT22;39812;52.430;16.936;2024-03-08T12:18:26;17.50;99.90
53904;DHT22;39812;52.430;16.936;2024-03-08T12:21:10;21.90;99.90
53904;DHT22;39812;52.430;16.936;2024-03-08T12:23:36;24.50;99.90
53904;DHT22;39812;52.430;16.936;2024-03-08T12:26:16;21.20;99.90
53904;DHT22;39812;52.430;16.936;2024-03-08T12:28:44;19.50;99.90
53904;DHT22;39812;52.430;16.936;2024-03-08T12:31:12;23.40;99.90
53904;DHT22;39812;52.430;16.936;2024-03-08T12:33:48;23.80;99.90
53904;DHT22;39812;52.430;16.936;2024-03-08T12:36:18;26.90;99.90
53904;DHT22;39812;52.430;16.936;2024-03-08T12:38:48;20.70;99.90
53904;DHT22;39812;52.430;16.936;2024-03-08T12:41:18;25.30;99.90
53904;DHT22;39812;52.430;16.936;2024-03-08T12:43:45;25.00;99.90
53904;DHT22;39812;52.430;16.936;2024-03-08T12:46:20;25.30;99.90
53904;DHT22;39812;52.430;16.936;2024-03-08T12:48:46;26.20;99.90
53904;DHT22;39812;52.430;16.936;2024-03-08T12:51:19;22.70;99.90
53904;DHT22;39812;52.430;16.936;2024-03-08T12:53:46;30.30;99.90
53904;DHT22;39812;52.430;16.936;2024-03-08T12:56:20;29.30;99.90
53904;DHT22;39812;52.430;16.936;2024-03-08T12:58:53;29.20;99.90
53904;DHT22;39812;52.430;16.936;2024-03-08T13:03:45;27.70;99.90
53904;DHT22;39812;52.430;16.936;2024-03-08T13:06:11;28.30;99.90
53904;DHT22;39812;52.430;16.936;2024-03-08T13:08:37;30.50;99.90
53904;DHT22;39812;52.430;16.936;2024-03-08T13:11:07;27.50;99.90
53904;DHT22;39812;52.430;16.936;2024-03-08T13:13:33;25.70;99.90
53904;DHT22;39812;52.430;16.936;2024-03-08T13:16:01;26.70;99.90
53904;DHT22;39812;52.430;16.936;2024-03-08T13:18:27;26.90;99.90
53904;DHT22;39812;52.430;16.936;2024-03-08T13:20:54;23.10;99.90
53904;DHT22;39812;52.430;16.936;2024-03-08T13:23:20;28.50;99.90
53904;DHT22;39812;52.430;16.936;2024-03-08T13:25:46;24.40;99.90
53904;DHT22;39812;52.430;16.936;2024-03-08T13:28:13;27.90;99.90
53904;DHT22;39812;52.430;16.936;2024-03-08T13:30:39;28.70;99.90
53904;DHT22;39812;52.430;16.936;2024-03-08T13:33:05;29.00;99.90
53904;DHT22;39812;52.430;16.936;2024-03-08T13:35:33;26.60;99.90
53904;DHT22;39812;52.430;16.936;2024-03-08T13:37:59;31.10;99.90
53904;DHT22;39812;52.430;16.936;2024-03-08T13:40:28;29.60;99.90
53904;DHT22;39812;52.430;16.936;2024-03-08T13:42:54;29.50;99.90
53904;DHT22;39812;52.430;16.936;2024-03-08T13:45:19;28.90;99.90
53904;DHT22;39812;52.430;16.936;2024-03-08T13:47:53;30.80;99.90
53904;DHT22;39812;52.430;16.936;2024-03-08T13:50:19;32.40;99.90
53904;DHT22;39812;52.430;16.936;2024-03-08T13:52:48;29.00;99.90
53904;DHT22;39812;52.430;16.936;2024-03-08T13:55:19;28.70;99.90
53904;DHT22;39812;52.430;16.936;2024-03-08T13:57:45;31.10;99.90
53904;DHT22;39812;52.430;16.936;2024-03-08T14:00:12;27.70;99.90
53904;DHT22;39812;52.430;16.936;2024-03-08T14:02:38;28.90;99.90
53904;DHT22;39812;52.430;16.936;2024-03-08T14:05:06;27.20;99.90
53904;DHT22;39812;52.430;16.936;2024-03-08T14:07:35;29.40;99.90
53904;DHT22;39812;52.430;16.936;2024-03-08T14:10:00;31.40;99.90
53904;DHT22;39812;52.430;16.936;2024-03-08T14:12:26;29.70;99.90
53904;DHT22;39812;52.430;16.936;2024-03-08T14:14:52;28.10;99.90
53904;DHT22;39812;52.430;16.936;2024-03-08T14:17:18;29.00;99.90
53904;DHT22;39812;52.430;16.936;2024-03-08T14:19:43;30.10;99.90
53904;DHT22;39812;52.430;16.936;2024-03-08T14:22:10;24.00;99.90
53904;DHT22;39812;52.430;16.936;2024-03-08T14:24:40;30.40;99.90
53904;DHT22;39812;52.430;16.936;2024-03-08T14:27:07;31.00;99.90
53904;DHT22;39812;52.430;16.936;2024-03-08T14:29:35;30.30;99.90
53904;DHT22;39812;52.430;16.936;2024-03-08T14:32:01;27.50;99.90
53904;DHT22;39812;52.430;16.936;2024-03-08T14:36:56;30.10;99.90
53904;DHT22;39812;52.430;16.936;2024-03-08T14:39:22;26.40;99.90
53904;DHT22;39812;52.430;16.936;2024-03-08T14:41:52;24.10;99.90
53904;DHT22;39812;52.430;16.936;2024-03-08T14:44:22;27.50;99.90
53904;DHT22;39812;52.430;16.936;2024-03-08T14:47:15;27.50;99.90
53904;DHT22;39812;52.430;16.936;2024-03-08T14:49:49;24.90;99.90
53904;DHT22;39812;52.430;16.936;2024-03-08T14:52:15;29.00;99.90
53904;DHT22;39812;52.430;16.936;2024-03-08T14:54:54;25.80;99.90
53904;DHT22;39812;52.430;16.936;2024-03-08T14:57:19;22.80;99.90
53904;DHT22;39812;52.430;16.936;2024-03-08T14:59:45;23.00;99.90
53904;DHT22;39812;52.430;16.936;2024-03-08T15:02:10;22.80;99.90
53904;DHT22;39812;52.430;16.936;2024-03-08T15:04:36;27.60;99.90
53904;DHT22;39812;52.430;16.936;2024-03-08T15:07:02;28.50;99.90
53904;DHT22;39812;52.430;16.936;2024-03-08T15:09:31;26.60;99.90
53904;DHT22;39812;52.430;16.936;2024-03-08T15:12:08;26.10;99.90
53904;DHT22;39812;52.430;16.936;2024-03-08T15:14:34;27.80;99.90
53904;DHT22;39812;52.430;16.936;2024-03-08T15:17:04;22.50;99.90
53904;DHT22;39812;52.430;16.936;2024-03-08T15:19:36;28.10;99.90
53904;DHT22;39812;52.430;16.936;2024-03-08T15:22:03;26.30;99.90
53904;DHT22;39812;52.430;16.936;2024-03-08T15:24:29;20.80;99.90
53904;DHT22;39812;52.430;16.936;2024-03-08T15:26:54;25.50;99.90
53904;DHT22;39812;52.430;16.936;2024-03-08T15:29:20;24.20;99.90
53904;DHT22;39812;52.430;16.936;2024-03-08T15:31:52;25.70;99.90
53904;DHT22;39812;52.430;16.936;2024-03-08T15:34:19;24.00;99.90
53904;DHT22;39812;52.430;16.936;2024-03-08T15:36:49;23.50;99.90
53904;DHT22;39812;52.430;16.936;2024-03-08T15:41:42;23.10;99.90
53904;DHT22;39812;52.430;16.936;2024-03-08T15:44:09;23.60;99.90
53904;DHT22;39812;52.430;16.936;2024-03-08T15:46:38;18.10;99.90
53904;DHT22;39812;52.430;16.936;2024-03-08T15:49:05;21.40;99.90
53904;DHT22;39812;52.430;16.936;2024-03-08T15:51:31;18.00;99.90
53904;DHT22;39812;52.430;16.936;2024-03-08T15:53:58;17.10;99.90
53904;DHT22;39812;52.430;16.936;2024-03-08T15:56:24;18.00;99.90
53904;DHT22;39812;52.430;16.936;2024-03-08T15:58:51;20.80;99.90
53904;DHT22;39812;52.430;16.936;2024-03-08T16:01:18;22.50;99.90
53904;DHT22;39812;52.430;16.936;2024-03-08T16:03:44;21.00;99.90
53904;DHT22;39812;52.430;16.936;2024-03-08T16:06:16;21.20;99.90
53904;DHT22;39812;52.430;16.936;2024-03-08T16:08:57;16.10;99.90
53904;DHT22;39812;52.430;16.936;2024-03-08T16:11:29;16.00;99.90
53904;DHT22;39812;52.430;16.936;2024-03-08T16:13:58;13.60;99.90
53904;DHT22;39812;52.430;16.936;2024-03-08T16:16:23;19.50;99.90
53904;DHT22;39812;52.430;16.936;2024-03-08T16:18:49;12.70;99.90
53904;DHT22;39812;52.430;16.936;2024-03-08T16:21:14;18.20;99.90
53904;DHT22;39812;52.430;16.936;2024-03-08T16:23:41;17.60;99.90
53904;DHT22;39812;52.430;16.936;2024-03-08T16:26:08;16.10;99.90
53904;DHT22;39812;52.430;16.936;2024-03-08T16:28:34;9.00;99.90
53904;DHT22;39812;52.430;16.936;2024-03-08T16:36:00;9.00;99.90
53904;DHT22;39812;52.430;16.936;2024-03-08T16:38:27;7.50;99.90
53904;DHT22;39812;52.430;16.936;2024-03-08T16:40:53;6.30;99.90
53904;DHT22;39812;52.430;16.936;2024-03-08T16:45:47;7.60;99.90
53904;DHT22;39812;52.430;16.936;2024-03-08T16:48:13;8.00;99.90
53904;DHT22;39812;52.430;16.936;2024-03-08T16:53:07;2.90;99.90
53904;DHT22;39812;52.430;16.936;2024-03-08T16:55:33;9.10;99.90
53904;DHT22;39812;52.430;16.936;2024-03-08T16:58:02;2.90;99.90
53904;DHT22;39812;52.430;16.936;2024-03-08T17:00:29;8.10;99.90
53904;DHT22;39812;52.430;16.936;2024-03-08T17:02:59;8.20;99.90
53904;DHT22;39812;52.430;16.936;2024-03-08T17:05:26;6.00;99.90
53904;DHT22;39812;52.430;16.936;2024-03-08T17:10:19;4.70;99.90
53904;DHT22;39812;52.430;16.936;2024-03-08T17:12:46;6.70;99.90
53904;DHT22;39812;52.430;16.936;2024-03-08T17:15:16;7.10;99.90
53904;DHT22;39812;52.430;16.936;2024-03-08T17:17:47;6.60;99.90
53904;DHT22;39812;52.430;16.936;2024-03-08T17:20:14;4.60;99.90
53904;DHT22;39812;52.430;16.936;2024-03-08T17:22:43;4.50;99.90
53904;DHT22;39812;52.430;16.936;2024-03-08T17:25:09;6.90;99.90
53904;DHT22;39812;52.430;16.936;2024-03-08T17:30:08;5.70;99.90
53904;DHT22;39812;52.430;16.936;2024-03-08T17:32:46;5.70;99.90
53904;DHT22;39812;52.430;16.936;2024-03-08T17:35:13;3.70;99.90
53904;DHT22;39812;52.430;16.936;2024-03-08T17:40:05;3.90;99.90
53904;DHT22;39812;52.430;16.936;2024-03-08T17:44:59;5.00;99.90
53904;DHT22;39812;52.430;16.936;2024-03-08T17:47:26;5.20;99.90
53904;DHT22;39812;52.430;16.936;2024-03-08T17:49:52;4.60;99.90
53904;DHT22;39812;52.430;16.936;2024-03-08T17:54:46;3.40;99.90
53904;DHT22;39812;52.430;16.936;2024-03-08T17:59:39;0.70;99.90
53904;DHT22;39812;52.430;16.936;2024-03-08T18:04:32;4.20;99.90
53904;DHT22;39812;52.430;16.936;2024-03-08T18:06:57;3.70;99.90
53904;DHT22;39812;52.430;16.936;2024-03-08T18:11:51;4.70;99.90
53904;DHT22;39812;52.430;16.936;2024-03-08T18:14:17;4.30;99.90
53904;DHT22;39812;52.430;16.936;2024-03-08T18:16:43;5.30;99.90
53904;DHT22;39812;52.430;16.936;2024-03-08T18:19:11;3.80;99.90
53904;DHT22;39812;52.430;16.936;2024-03-08T18:21:40;0.40;99.90
53904;DHT22;39812;52.430;16.936;2024-03-08T18:26:32;4.30;99.90
53904;DHT22;39812;52.430;16.936;2024-03-08T18:29:02;3.10;99.90
53904;DHT22;39812;52.430;16.936;2024-03-08T18:31:30;2.90;99.90
53904;DHT22;39812;52.430;16.936;2024-03-08T18:33:58;4.10;99.90
53904;DHT22;39812;52.430;16.936;2024-03-08T18:36:26;3.80;99.90
53904;DHT22;39812;52.430;16.936;2024-03-08T18:38:53;3.00;99.90
53904;DHT22;39812;52.430;16.936;2024-03-08T18:48:37;-0.10;99.90
53904;DHT22;39812;52.430;16.936;2024-03-08T18:51:04;3.00;99.90
53904;DHT22;39812;52.430;16.936;2024-03-08T18:53:30;2.60;99.90
53904;DHT22;39812;52.430;16.936;2024-03-08T18:55:56;4.20;99.90
53904;DHT22;39812;52.430;16.936;2024-03-08T18:58:21;2.30;99.90
53904;DHT22;39812;52.430;16.936;2024-03-08T19:03:15;2.70;99.90
53904;DHT22;39812;52.430;16.936;2024-03-08T19:05:42;4.40;99.90
53904;DHT22;39812;52.430;16.936;2024-03-08T19:08:10;2.70;99.90
53904;DHT22;39812;52.430;16.936;2024-03-08T19:13:04;2.70;99.90
53904;DHT22;39812;52.430;16.936;2024-03-08T19:15:31;0.30;99.90
53904;DHT22;39812;52.430;16.936;2024-03-08T19:18:00;2.70;99.90
53904;DHT22;39812;52.430;16.936;2024-03-08T19:20:27;2.60;99.90
53904;DHT22;39812;52.430;16.936;2024-03-08T19:22:56;2.10;99.90
53904;DHT22;39812;52.430;16.936;2024-03-08T19:25:28;2.50;99.90
53904;DHT22;39812;52.430;16.936;2024-03-08T19:28:04;2.20;99.90
53904;DHT22;39812;52.430;16.936;2024-03-08T19:30:32;2.50;99.90
53904;DHT22;39812;52.430;16.936;2024-03-08T19:32:59;2.50;99.90
53904;DHT22;39812;52.430;16.936;2024-03-08T19:37:52;2.60;99.90
53904;DHT22;39812;52.430;16.936;2024-03-08T19:40:28;3.70;99.90
53904;DHT22;39812;52.430;16.936;2024-03-08T19:42:58;3.10;99.90
53904;DHT22;39812;52.430;16.936;2024-03-08T19:45:25;3.50;99.90
53904;DHT22;39812;52.430;16.936;2024-03-08T19:48:01;3.60;99.90
53904;DHT22;39812;52.430;16.936;2024-03-08T19:50:31;1.90;99.90
53904;DHT22;39812;52.430;16.936;2024-03-08T19:52:58;3.30;99.90
53904;DHT22;39812;52.430;16.936;2024-03-08T19:55:32;1.90;99.90
53904;DHT22;39812;52.430;16.936;2024-03-08T19:57:59;2.00;99.90
53904;DHT22;39812;52.430;16.936;2024-03-08T20:00:26;1.30;99.90
53904;DHT22;39812;52.430;16.936;2024-03-08T20:02:55;2.10;99.90
53904;DHT22;39812;52.430;16.936;2024-03-08T20:05:26;3.80;99.90
53904;DHT22;39812;52.430;16.936;2024-03-08T20:07:52;1.20;99.90
53904;DHT22;39812;52.430;16.936;2024-03-08T20:10:21;1.90;99.90
53904;DHT22;39812;52.430;16.936;2024-03-08T20:12:47;1.10;99.90
53904;DHT22;39812;52.430;16.936;2024-03-08T20:15:14;1.00;99.90
53904;DHT22;39812;52.430;16.936;2024-03-08T20:17:42;0.90;99.90
53904;DHT22;39812;52.430;16.936;2024-03-08T20:20:10;1.90;99.90
53904;DHT22;39812;52.430;16.936;2024-03-08T20:22:40;1.20;99.90
53904;DHT22;39812;52.430;16.936;2024-03-08T20:25:11;1.00;99.90
53904;DHT22;39812;52.430;16.936;2024-03-08T20:27:40;1.00;99.90
53904;DHT22;39812;52.430;16.936;2024-03-08T20:30:12;2.00;99.90
53904;DHT22;39812;52.430;16.936;2024-03-08T20:32:38;2.20;99.90
53904;DHT22;39812;52.430;16.936;2024-03-08T20:35:06;0.70;99.90
53904;DHT22;39812;52.430;16.936;2024-03-08T20:39:59;1.00;99.90
53904;DHT22;39812;52.430;16.936;2024-03-08T20:42:24;1.10;99.90
53904;DHT22;39812;52.430;16.936;2024-03-08T20:49:47;2.70;99.90
53904;DHT22;39812;52.430;16.936;2024-03-08T20:54:38;0.30;99.90
53904;DHT22;39812;52.430;16.936;2024-03-08T20:57:04;2.50;99.90
53904;DHT22;39812;52.430;16.936;2024-03-08T20:59:30;2.70;99.90